Time;durP1;ratioP1;P1;durP2;ratioP2;P2;SDS_P1;SDS_P2;PMS_P1;PMS_P2;Temp;Humidity;BMP_temperature;BMP_pressure;BME280_temperature;BME280_humidity;BME280_pressure;Samples;Min_cycle;Max_cycle;Signal;HPM_P1;HPM_P2
2023/08/10 00:00:17;;;;;;;14.77;5.93;;;18.50;99.90;;;;;;4936227;29;20030;-73
2023/08/10 00:02:44;;;;;;;14.00;6.30;;;18.50;99.90;;;;;;4936226;29;20102;-74
2023/08/10 00:05:11;;;;;;;19.80;6.38;;;18.50;99.90;;;;;;4936297;29;20043;-73
2023/08/10 00:07:37;;;;;;;21.33;6.93;;;18.50;99.90;;;;;;4935721;29;20114;-73
2023/08/10 00:10:04;;;;;;;13.88;6.70;;;18.50;99.90;;;;;;4936183;29;20044;-73
2023/08/10 00:12:30;;;;;;;16.17;6.32;;;18.40;99.90;;;;;;4935712;29;20433;-74
2023/08/10 00:14:56;;;;;;;18.35;5.75;;;18.40;99.90;;;;;;4935833;29;20031;-74
2023/08/10 00:17:22;;;;;;;16.20;6.45;;;18.30;99.90;;;;;;4935739;29;20539;-74
2023/08/10 00:19:49;;;;;;;12.25;5.97;;;18.30;99.90;;;;;;4935899;29;20479;-74
2023/08/10 00:22:15;;;;;;;13.63;5.53;;;18.30;99.90;;;;;;4935679;29;20043;-74
2023/08/10 00:24:41;;;;;;;15.90;6.15;;;18.30;99.90;;;;;;4935350;29;20050;-74
2023/08/10 00:27:06;;;;;;;12.10;5.40;;;18.30;99.90;;;;;;4935754;29;20028;-74
2023/08/10 00:29:33;;;;;;;11.88;5.68;;;18.30;99.90;;;;;;4918312;29;20040;-73
2023/08/10 00:31:59;;;;;;;13.10;5.63;;;18.40;99.90;;;;;;4917981;29;20398;-74
2023/08/10 00:34:25;;;;;;;14.80;5.50;;;18.30;99.90;;;;;;4935633;29;20039;-73
2023/08/10 00:36:50;;;;;;;10.25;5.13;;;18.30;99.90;;;;;;4917929;28;20031;-73
2023/08/10 00:39:17;;;;;;;9.93;5.22;;;18.30;99.90;;;;;;4935392;29;20086;-74
2023/08/10 00:41:43;;;;;;;12.63;5.85;;;18.40;99.90;;;;;;4918361;29;20171;-74
2023/08/10 00:44:09;;;;;;;12.05;4.28;;;18.40;99.90;;;;;;4917963;29;20051;-73
2023/08/10 00:46:36;;;;;;;12.02;5.18;;;18.30;99.90;;;;;;4918136;29;20396;-74
2023/08/10 00:49:04;;;;;;;13.35;5.22;;;18.30;99.90;;;;;;4918367;29;20028;-74
2023/08/10 00:51:30;;;;;;;9.65;4.65;;;18.30;99.90;;;;;;4918026;29;20494;-74
2023/08/10 00:53:56;;;;;;;8.65;4.78;;;18.40;99.90;;;;;;4908694;29;20043;-74
2023/08/10 00:56:22;;;;;;;19.02;5.55;;;18.40;99.90;;;;;;4898263;29;20404;-73
2023/08/10 00:58:49;;;;;;;10.98;5.30;;;18.40;99.90;;;;;;4899579;29;20035;-73
2023/08/10 01:01:15;;;;;;;12.43;5.15;;;18.40;99.90;;;;;;4916681;29;20074;-74
2023/08/10 01:03:41;;;;;;;10.05;3.88;;;18.50;99.90;;;;;;4903961;29;20047;-74
2023/08/10 01:06:38;;;;;;;8.52;3.92;;;18.50;99.90;;;;;;4927169;29;20024;-73
2023/08/10 01:09:16;;;;;;;7.93;3.92;;;18.50;99.90;;;;;;4929801;29;20051;-74
2023/08/10 01:12:00;;;;;;;10.38;4.60;;;18.50;99.90;;;;;;4918251;29;20400;-74
2023/08/10 01:14:35;;;;;;;9.38;4.47;;;18.50;99.90;;;;;;4934885;29;20368;-74
2023/08/10 01:17:03;;;;;;;9.30;4.47;;;18.40;99.90;;;;;;4934804;29;20032;-73
2023/08/10 01:19:38;;;;;;;9.30;4.53;;;18.40;99.90;;;;;;4934976;29;20027;-74
2023/08/10 01:22:51;;;;;;;8.27;4.10;;;18.30;99.90;;;;;;4934711;29;20457;-73
2023/08/10 01:25:19;;;;;;;7.15;3.35;;;18.30;99.90;;;;;;4897986;29;20040;-74
2023/08/10 01:27:46;;;;;;;7.63;3.92;;;18.30;99.90;;;;;;4881989;29;20590;-74
2023/08/10 01:30:12;;;;;;;7.68;3.53;;;18.40;99.90;;;;;;4893637;29;20048;-74
2023/08/10 01:32:38;;;;;;;4.85;3.30;;;18.40;99.90;;;;;;4894208;29;20417;-74
2023/08/10 01:35:08;;;;;;;5.28;2.50;;;18.40;99.90;;;;;;4877238;29;20069;-74
2023/08/10 01:37:37;;;;;;;5.28;2.60;;;18.30;99.90;;;;;;4893062;29;20055;-74
2023/08/10 01:40:07;;;;;;;5.35;2.45;;;18.30;99.90;;;;;;4895429;29;20485;-74
2023/08/10 01:42:32;;;;;;;4.32;2.50;;;18.30;99.90;;;;;;4880875;29;20053;-74
2023/08/10 01:44:58;;;;;;;3.83;2.33;;;18.30;99.90;;;;;;4892560;29;20048;-74
2023/08/10 01:47:34;;;;;;;5.85;2.95;;;18.40;99.90;;;;;;4861381;29;20536;-73
2023/08/10 01:50:03;;;;;;;7.28;2.90;;;18.40;99.90;;;;;;4893095;29;20507;-74
2023/08/10 01:52:33;;;;;;;7.10;3.63;;;18.30;99.90;;;;;;4889634;29;20033;-74
2023/08/10 01:54:59;;;;;;;6.32;3.47;;;18.30;99.90;;;;;;4879001;29;20569;-74
2023/08/10 01:57:28;;;;;;;6.00;2.33;;;18.30;99.90;;;;;;4896965;29;20028;-73
2023/08/10 01:59:55;;;;;;;6.22;2.85;;;18.30;99.90;;;;;;4913917;29;20429;-74
2023/08/10 02:02:20;;;;;;;4.75;3.08;;;18.30;99.90;;;;;;4896340;29;20037;-74
2023/08/10 02:04:46;;;;;;;8.65;3.13;;;18.30;99.90;;;;;;4914176;29;20065;-73
2023/08/10 02:07:12;;;;;;;21.13;3.33;;;18.30;99.90;;;;;;4896598;29;20430;-73
2023/08/10 02:09:38;;;;;;;3.90;2.65;;;18.30;99.90;;;;;;4897150;29;20067;-73
2023/08/10 02:12:04;;;;;;;7.03;2.40;;;18.40;99.90;;;;;;4897209;29;20067;-73
2023/08/10 02:14:30;;;;;;;6.80;2.90;;;18.40;99.90;;;;;;4897085;29;20427;-73
2023/08/10 02:16:56;;;;;;;5.15;2.90;;;18.40;99.90;;;;;;4899183;29;20476;-73
2023/08/10 02:19:22;;;;;;;6.05;2.50;;;18.40;99.90;;;;;;4897133;29;20425;-73
2023/08/10 02:21:49;;;;;;;4.95;2.38;;;18.40;99.90;;;;;;4913763;29;20485;-73
2023/08/10 02:24:15;;;;;;;5.72;2.53;;;18.40;99.90;;;;;;4913647;29;20068;-73
2023/08/10 02:26:41;;;;;;;5.80;2.53;;;18.40;99.90;;;;;;4897178;29;20035;-73
2023/08/10 02:29:07;;;;;;;5.15;2.45;;;18.40;99.90;;;;;;4913884;29;20032;-73
2023/08/10 02:31:33;;;;;;;5.18;2.70;;;18.40;99.90;;;;;;4913713;29;20032;-73
2023/08/10 02:33:59;;;;;;;2.85;2.35;;;18.40;99.90;;;;;;4896834;29;20051;-73
2023/08/10 02:36:24;;;;;;;5.05;2.85;;;18.40;99.90;;;;;;4914028;29;20381;-73
2023/08/10 02:38:50;;;;;;;5.38;2.35;;;18.30;99.90;;;;;;4913528;29;20028;-73
2023/08/10 02:41:16;;;;;;;4.75;2.85;;;18.30;99.90;;;;;;4913871;29;20063;-73
2023/08/10 02:43:42;;;;;;;3.58;2.40;;;18.30;99.90;;;;;;4913744;29;20480;-73
2023/08/10 02:46:08;;;;;;;5.00;2.80;;;18.20;99.90;;;;;;4897121;29;20028;-73
2023/08/10 02:48:34;;;;;;;7.35;2.47;;;18.20;99.90;;;;;;4903981;29;20040;-73
2023/08/10 02:51:00;;;;;;;7.45;2.80;;;18.20;99.90;;;;;;4916956;29;20042;-74
2023/08/10 02:53:26;;;;;;;3.28;2.55;;;18.20;99.90;;;;;;4917718;29;20459;-73
2023/08/10 02:55:51;;;;;;;4.43;2.60;;;18.10;99.90;;;;;;4917683;29;20032;-74
2023/08/10 02:58:20;;;;;;;5.55;2.20;;;18.10;99.90;;;;;;4917031;29;20528;-73
2023/08/10 03:00:45;;;;;;;7.22;3.17;;;18.00;99.90;;;;;;4916800;29;20090;-73
2023/08/10 03:03:11;;;;;;;9.38;3.10;;;18.00;99.90;;;;;;4916937;29;20523;-73
2023/08/10 03:05:37;;;;;;;5.78;2.78;;;17.90;99.90;;;;;;4900291;29;20047;-74
2023/08/10 03:08:03;;;;;;;6.82;2.95;;;17.90;99.90;;;;;;4899320;29;20474;-73
2023/08/10 03:10:29;;;;;;;10.63;2.70;;;17.90;99.90;;;;;;4916824;29;20468;-74
2023/08/10 03:12:55;;;;;;;4.45;2.70;;;17.90;99.90;;;;;;4904641;29;20036;-73
2023/08/10 03:15:22;;;;;;;6.10;2.58;;;17.90;99.90;;;;;;4903617;29;20499;-74
2023/08/10 03:17:48;;;;;;;6.40;2.83;;;17.80;99.90;;;;;;4918458;29;20028;-73
2023/08/10 03:20:16;;;;;;;11.13;2.60;;;17.90;99.90;;;;;;4907407;29;20036;-73
2023/08/10 03:22:44;;;;;;;5.80;2.78;;;17.90;99.90;;;;;;4903161;29;20028;-73
2023/08/10 03:25:10;;;;;;;4.90;2.80;;;17.90;99.90;;;;;;4914753;29;20045;-73
2023/08/10 03:27:36;;;;;;;5.38;2.85;;;17.90;99.90;;;;;;4915668;29;20044;-73
2023/08/10 03:30:06;;;;;;;5.10;2.90;;;17.90;99.90;;;;;;4899511;29;20032;-72
2023/08/10 03:32:34;;;;;;;6.90;2.67;;;17.90;99.90;;;;;;4916170;29;20028;-73
2023/08/10 03:35:00;;;;;;;6.15;3.60;;;17.90;99.90;;;;;;4918199;29;20083;-73
2023/08/10 03:37:26;;;;;;;6.10;2.92;;;17.90;99.90;;;;;;4899407;29;20493;-73
2023/08/10 03:39:53;;;;;;;6.15;3.72;;;18.00;99.90;;;;;;4914307;29;20040;-73
2023/08/10 03:42:18;;;;;;;5.75;3.20;;;18.00;99.90;;;;;;4914163;29;20400;-73
2023/08/10 03:44:45;;;;;;;7.10;3.20;;;18.00;99.90;;;;;;4898877;29;20062;-73
2023/08/10 03:47:10;;;;;;;4.72;2.95;;;18.10;99.90;;;;;;4916028;29;20067;-73
2023/08/10 03:49:36;;;;;;;9.70;3.55;;;18.00;99.90;;;;;;4897963;29;20036;-73
2023/08/10 03:52:02;;;;;;;4.53;2.72;;;18.10;99.90;;;;;;4915029;29;20031;-73
2023/08/10 03:54:29;;;;;;;6.75;3.72;;;18.10;99.90;;;;;;4935588;29;20392;-73
2023/08/10 03:56:56;;;;;;;6.55;3.08;;;18.00;99.90;;;;;;4918386;29;20036;-73
2023/08/10 03:59:22;;;;;;;6.13;3.17;;;18.00;99.90;;;;;;4917392;29;20027;-74
2023/08/10 04:01:51;;;;;;;5.15;3.50;;;18.00;99.90;;;;;;4914195;29;20111;-73
2023/08/10 04:04:18;;;;;;;4.85;3.20;;;17.90;99.90;;;;;;4915950;29;20024;-74
2023/08/10 04:06:44;;;;;;;6.45;3.83;;;17.90;99.90;;;;;;4898657;29;20032;-73
2023/08/10 04:09:09;;;;;;;7.80;3.13;;;17.90;99.90;;;;;;4914227;29;20067;-73
2023/08/10 04:11:36;;;;;;;6.70;3.42;;;18.00;99.90;;;;;;4914253;29;20035;-73
2023/08/10 04:14:01;;;;;;;5.55;3.65;;;18.00;99.90;;;;;;4914435;29;20040;-73
2023/08/10 04:16:27;;;;;;;7.93;3.83;;;18.00;99.90;;;;;;4915412;29;20111;-74
2023/08/10 04:18:53;;;;;;;6.22;3.38;;;18.10;99.90;;;;;;4915595;29;20039;-74
2023/08/10 04:21:19;;;;;;;7.70;3.83;;;18.10;99.90;;;;;;4900792;29;20111;-74
2023/08/10 04:23:45;;;;;;;5.50;3.58;;;18.10;99.90;;;;;;4913376;29;20028;-74
2023/08/10 04:26:12;;;;;;;4.28;2.95;;;18.10;99.90;;;;;;4915144;29;20161;-73
2023/08/10 04:28:38;;;;;;;11.68;3.95;;;18.10;99.90;;;;;;4915080;29;20044;-73
2023/08/10 04:31:04;;;;;;;9.65;4.70;;;18.20;99.90;;;;;;4915195;29;20032;-74
2023/08/10 04:33:31;;;;;;;8.40;3.70;;;18.30;99.90;;;;;;4914983;29;20036;-74
2023/08/10 04:35:57;;;;;;;8.90;4.00;;;18.40;99.90;;;;;;4915227;29;20460;-73
2023/08/10 04:38:23;;;;;;;6.70;3.55;;;18.40;99.90;;;;;;4915359;29;20083;-74
2023/08/10 04:40:49;;;;;;;7.18;3.42;;;18.40;99.90;;;;;;4915258;29;20032;-74
2023/08/10 04:43:15;;;;;;;11.32;4.28;;;18.40;99.90;;;;;;4914979;29;20036;-74
2023/08/10 04:45:41;;;;;;;6.18;3.65;;;18.40;99.90;;;;;;4915178;29;20028;-74
2023/08/10 04:48:09;;;;;;;5.30;3.70;;;18.40;99.90;;;;;;4914854;29;20527;-73
2023/08/10 04:50:34;;;;;;;6.93;3.60;;;18.40;99.90;;;;;;4914125;29;20139;-74
2023/08/10 04:53:00;;;;;;;8.65;3.70;;;18.50;99.90;;;;;;4914104;29;20115;-74
2023/08/10 04:55:27;;;;;;;4.97;3.42;;;18.60;99.90;;;;;;4914716;29;20036;-73
2023/08/10 04:57:53;;;;;;;6.13;3.33;;;18.70;99.90;;;;;;4914364;29;20020;-73
2023/08/10 05:00:19;;;;;;;7.28;3.38;;;18.80;99.90;;;;;;4913636;29;20032;-74
2023/08/10 05:02:45;;;;;;;7.57;3.20;;;18.90;99.90;;;;;;4915147;29;20058;-74
2023/08/10 05:05:11;;;;;;;8.63;3.90;;;18.80;99.90;;;;;;4914548;29;20020;-74
2023/08/10 05:07:37;;;;;;;4.90;3.05;;;19.00;99.90;;;;;;4913587;29;20095;-74
2023/08/10 05:10:06;;;;;;;10.82;4.10;;;19.10;99.90;;;;;;4913663;29;20028;-74
2023/08/10 05:12:34;;;;;;;6.65;3.80;;;19.20;99.90;;;;;;4914680;29;20063;-74
2023/08/10 05:15:00;;;;;;;5.93;3.38;;;19.30;99.90;;;;;;4925889;29;20192;-74
2023/08/10 05:17:26;;;;;;;6.28;2.80;;;19.50;99.90;;;;;;4921586;29;20122;-73
2023/08/10 05:19:52;;;;;;;6.07;3.67;;;20.00;99.90;;;;;;4918258;29;20081;-73
2023/08/10 05:22:18;;;;;;;5.70;3.10;;;20.30;99.90;;;;;;4934741;29;20067;-73
2023/08/10 05:24:44;;;;;;;4.50;3.33;;;20.80;99.90;;;;;;4934974;29;20020;-73
2023/08/10 05:27:10;;;;;;;5.57;2.97;;;21.10;99.90;;;;;;4924753;29;20495;-73
2023/08/10 05:29:35;;;;;;;5.38;2.85;;;21.10;99.90;;;;;;4931771;29;20550;-73
2023/08/10 05:32:01;;;;;;;5.13;2.72;;;21.30;99.90;;;;;;4921236;29;20508;-74
2023/08/10 05:34:27;;;;;;;8.23;3.25;;;21.50;99.90;;;;;;4923705;29;20024;-74
2023/08/10 05:36:53;;;;;;;7.22;3.30;;;21.90;99.90;;;;;;4928506;29;20498;-74
2023/08/10 05:39:18;;;;;;;8.20;3.92;;;22.00;99.90;;;;;;4924584;29;20036;-74
2023/08/10 05:41:44;;;;;;;6.40;3.03;;;22.20;99.90;;;;;;4923850;29;20047;-74
2023/08/10 05:44:12;;;;;;;4.75;2.58;;;22.60;99.90;;;;;;4918609;29;20023;-74
2023/08/10 05:46:38;;;;;;;4.32;2.63;;;22.30;99.90;;;;;;4934438;29;20032;-74
2023/08/10 05:49:04;;;;;;;3.55;2.20;;;22.30;99.90;;;;;;4920974;29;20035;-74
2023/08/10 05:51:30;;;;;;;5.35;2.45;;;22.40;99.90;;;;;;4934794;29;20035;-74
2023/08/10 05:53:55;;;;;;;5.55;2.85;;;22.60;99.90;;;;;;4921458;29;20023;-74
2023/08/10 05:56:21;;;;;;;6.68;3.50;;;23.10;98.90;;;;;;4924400;29;20491;-73
2023/08/10 05:58:47;;;;;;;6.03;2.90;;;23.30;97.60;;;;;;4916567;29;20032;-73
2023/08/10 06:01:13;;;;;;;10.52;2.72;;;23.10;98.10;;;;;;4916608;29;20066;-74
2023/08/10 06:03:39;;;;;;;5.93;2.58;;;22.90;97.90;;;;;;4921658;29;20056;-73
2023/08/10 06:06:08;;;;;;;6.90;2.97;;;23.10;98.20;;;;;;4919306;29;20072;-74
2023/08/10 06:08:34;;;;;;;7.53;2.60;;;22.90;97.90;;;;;;4921981;29;20088;-73
2023/08/10 06:11:01;;;;;;;6.88;2.90;;;22.80;98.40;;;;;;4919153;29;20028;-73
2023/08/10 06:13:27;;;;;;;8.43;3.35;;;22.50;98.50;;;;;;4917444;29;20020;-73
2023/08/10 06:15:53;;;;;;;4.70;2.60;;;22.90;98.20;;;;;;4920670;29;20428;-74
2023/08/10 06:18:19;;;;;;;8.25;3.10;;;22.70;98.90;;;;;;4923555;29;20063;-73
2023/08/10 06:20:45;;;;;;;4.45;2.50;;;22.60;99.70;;;;;;4923354;29;20033;-74
2023/08/10 06:23:12;;;;;;;4.35;2.80;;;21.80;98.50;;;;;;4935682;29;20468;-74
2023/08/10 06:25:38;;;;;;;6.35;3.15;;;21.70;99.30;;;;;;4923760;29;20473;-74
2023/08/10 06:28:04;;;;;;;9.63;3.22;;;21.80;99.90;;;;;;4923963;29;20090;-74
2023/08/10 06:30:30;;;;;;;7.60;3.15;;;21.90;99.90;;;;;;4930395;29;20056;-74
2023/08/10 06:32:55;;;;;;;6.22;2.78;;;21.80;99.90;;;;;;4927393;29;20062;-74
2023/08/10 06:35:22;;;;;;;7.13;2.55;;;22.00;99.30;;;;;;4937778;29;20461;-74
2023/08/10 06:37:50;;;;;;;4.65;2.50;;;21.90;99.90;;;;;;4937675;28;20090;-73
2023/08/10 06:40:16;;;;;;;3.92;2.47;;;21.90;99.90;;;;;;4920045;29;20377;-74
2023/08/10 06:42:42;;;;;;;3.67;2.70;;;21.70;99.90;;;;;;4936587;29;20050;-73
2023/08/10 06:45:25;;;;;;;6.80;3.20;;;21.50;99.90;;;;;;4920236;29;20027;-74
2023/08/10 06:47:52;;;;;;;10.45;3.42;;;21.40;99.90;;;;;;4937605;29;20083;-74
2023/08/10 06:50:18;;;;;;;4.82;2.88;;;21.50;99.90;;;;;;4937521;29;20508;-74
2023/08/10 06:52:45;;;;;;;6.75;3.05;;;21.40;99.90;;;;;;4937699;29;20107;-74
2023/08/10 06:55:13;;;;;;;6.70;3.22;;;21.30;99.90;;;;;;4937251;29;20039;-74
2023/08/10 06:57:39;;;;;;;8.50;3.08;;;21.20;99.90;;;;;;4937187;29;20491;-73
2023/08/10 07:00:07;;;;;;;5.38;2.80;;;21.20;99.90;;;;;;4936987;29;20031;-74
2023/08/10 07:02:34;;;;;;;7.60;3.50;;;21.10;99.90;;;;;;4937188;29;20043;-74
2023/08/10 07:05:00;;;;;;;6.20;3.22;;;21.50;99.90;;;;;;4937023;29;20492;-74
2023/08/10 07:07:26;;;;;;;4.93;2.72;;;22.00;99.90;;;;;;4936680;28;20120;-74
2023/08/10 07:09:52;;;;;;;3.38;2.22;;;22.50;99.90;;;;;;4919955;29;20083;-73
2023/08/10 07:12:18;;;;;;;3.45;2.15;;;22.80;97.70;;;;;;4937325;29;20043;-74
2023/08/10 07:14:44;;;;;;;6.72;2.80;;;23.40;99.00;;;;;;4936832;29;20031;-74
2023/08/10 07:17:10;;;;;;;3.33;1.98;;;23.30;96.60;;;;;;4936492;29;20032;-74
2023/08/10 07:19:36;;;;;;;5.13;1.98;;;23.40;96.10;;;;;;4936001;29;20032;-74
2023/08/10 07:22:02;;;;;;;4.90;1.98;;;23.60;93.70;;;;;;4921156;29;20047;-74
2023/08/10 07:24:28;;;;;;;3.13;1.90;;;23.50;94.30;;;;;;4919544;29;20111;-73
2023/08/10 07:26:56;;;;;;;3.15;1.80;;;23.50;93.10;;;;;;4936705;29;20107;-73
2023/08/10 07:29:23;;;;;;;4.03;2.40;;;23.40;92.80;;;;;;4936976;29;20107;-74
2023/08/10 07:31:50;;;;;;;3.60;1.85;;;23.30;93.20;;;;;;4930513;29;20107;-73
2023/08/10 07:34:17;;;;;;;7.35;2.22;;;23.30;92.80;;;;;;4923278;29;20421;-74
2023/08/10 07:36:43;;;;;;;3.60;1.98;;;23.10;93.50;;;;;;4917721;29;20107;-74
2023/08/10 07:39:09;;;;;;;4.55;2.17;;;23.20;92.90;;;;;;4917780;29;20493;-74
2023/08/10 07:41:35;;;;;;;7.53;2.53;;;23.00;93.70;;;;;;4931139;29;20123;-74
2023/08/10 07:44:00;;;;;;;3.92;2.50;;;23.10;93.60;;;;;;4936549;29;20035;-74
2023/08/10 07:46:27;;;;;;;4.50;1.90;;;23.00;94.20;;;;;;4936329;29;20030;-74
2023/08/10 07:48:52;;;;;;;6.20;2.38;;;23.10;93.00;;;;;;4918095;29;20040;-73
2023/08/10 07:51:18;;;;;;;3.72;1.73;;;22.90;93.40;;;;;;4917705;29;20038;-74
2023/08/10 07:53:44;;;;;;;5.95;2.53;;;22.70;93.80;;;;;;4907984;29;20047;-75
2023/08/10 07:56:11;;;;;;;3.53;2.00;;;22.70;94.90;;;;;;4930103;29;20034;-73
2023/08/10 07:58:37;;;;;;;7.20;2.20;;;22.80;93.70;;;;;;4924531;29;20079;-73
2023/08/10 08:01:06;;;;;;;6.40;2.92;;;22.80;95.30;;;;;;4921479;29;20401;-73
2023/08/10 08:03:32;;;;;;;5.70;2.42;;;22.80;95.90;;;;;;4950947;29;20471;-73
2023/08/10 08:05:58;;;;;;;4.50;2.45;;;22.90;96.00;;;;;;4953504;29;20034;-74
2023/08/10 08:08:24;;;;;;;7.13;2.35;;;22.70;96.40;;;;;;4921917;29;20056;-73
2023/08/10 08:10:49;;;;;;;2.65;2.25;;;22.60;96.30;;;;;;4919959;29;20115;-73
2023/08/10 08:13:15;;;;;;;4.68;2.58;;;22.30;97.00;;;;;;4931967;29;20038;-74
2023/08/10 08:15:43;;;;;;;4.25;2.30;;;22.60;97.70;;;;;;4919299;29;20503;-73
2023/08/10 08:18:43;;;;;;;6.20;2.72;;;22.80;97.50;;;;;;4933525;29;20028;-74
2023/08/10 08:21:20;;;;;;;3.83;2.22;;;22.60;97.20;;;;;;4925892;29;20035;-73
2023/08/10 08:23:47;;;;;;;3.60;2.58;;;22.60;98.20;;;;;;4936764;29;20032;-74
2023/08/10 08:26:14;;;;;;;5.25;2.28;;;22.60;98.70;;;;;;4936593;29;20435;-74
2023/08/10 08:28:42;;;;;;;11.27;2.35;;;22.70;97.70;;;;;;4919520;29;20043;-74
2023/08/10 08:31:08;;;;;;;5.10;2.38;;;22.80;97.10;;;;;;4935870;29;20472;-74
2023/08/10 08:33:35;;;;;;;2.83;1.85;;;22.60;96.60;;;;;;4936362;29;20030;-74
2023/08/10 08:36:01;;;;;;;5.15;2.38;;;22.90;96.20;;;;;;4936638;29;20015;-74
2023/08/10 08:38:29;;;;;;;6.85;2.05;;;23.10;95.50;;;;;;4936257;29;20031;-74
2023/08/10 08:40:56;;;;;;;4.15;2.67;;;23.00;94.80;;;;;;4919503;29;20083;-73
2023/08/10 08:43:22;;;;;;;4.50;2.00;;;23.20;95.10;;;;;;4936176;29;20559;-74
2023/08/10 08:45:48;;;;;;;2.30;1.80;;;23.30;95.10;;;;;;4935529;29;20472;-74
2023/08/10 08:48:16;;;;;;;3.42;2.03;;;23.20;95.00;;;;;;4936320;29;20095;-74
2023/08/10 08:50:44;;;;;;;4.47;2.17;;;23.30;94.90;;;;;;4935155;29;20032;-74
2023/08/10 08:53:12;;;;;;;4.00;2.00;;;23.30;94.40;;;;;;4935244;29;20034;-74
2023/08/10 08:55:39;;;;;;;5.97;2.00;;;23.30;94.70;;;;;;4925515;29;20435;-74
2023/08/10 08:58:05;;;;;;;4.65;2.40;;;23.50;94.90;;;;;;4918046;29;20123;-74
2023/08/10 09:00:31;;;;;;;6.93;2.38;;;23.40;95.40;;;;;;4914431;29;20409;-73
2023/08/10 09:02:58;;;;;;;4.75;2.45;;;23.30;95.50;;;;;;4935913;29;20028;-73
2023/08/10 09:05:24;;;;;;;4.25;2.28;;;23.60;95.60;;;;;;4935120;29;20036;-73
2023/08/10 09:07:51;;;;;;;2.50;1.58;;;23.90;94.40;;;;;;4934879;29;20055;-73
2023/08/10 09:10:17;;;;;;;3.33;1.90;;;23.80;93.30;;;;;;4935616;29;20087;-73
2023/08/10 09:12:42;;;;;;;3.28;2.15;;;24.10;93.00;;;;;;4936082;29;20114;-74
2023/08/10 09:15:10;;;;;;;3.47;2.05;;;24.30;92.70;;;;;;4944032;29;20107;-73
2023/08/10 09:17:38;;;;;;;4.57;2.47;;;24.40;93.20;;;;;;4935777;29;20019;-73
2023/08/10 09:20:08;;;;;;;4.25;2.10;;;24.60;91.60;;;;;;4935121;29;20032;-74
2023/08/10 09:22:39;;;;;;;3.65;2.03;;;24.60;91.70;;;;;;4935724;29;20071;-74
2023/08/10 09:25:09;;;;;;;3.72;2.00;;;24.70;91.00;;;;;;4935907;29;20440;-73
2023/08/10 09:27:35;;;;;;;4.05;2.17;;;24.50;90.70;;;;;;4935656;29;20469;-73
2023/08/10 09:30:02;;;;;;;6.13;2.13;;;24.60;89.60;;;;;;4929006;29;20024;-72
2023/08/10 09:32:28;;;;;;;1.70;1.60;;;24.50;91.30;;;;;;4934682;29;20035;-73
2023/08/10 09:34:55;;;;;;;2.30;1.70;;;24.40;89.70;;;;;;4935839;29;20024;-74
2023/08/10 09:37:22;;;;;;;1.98;1.50;;;24.60;89.80;;;;;;4909620;29;20024;-73
2023/08/10 09:39:57;;;;;;;3.15;1.92;;;24.70;88.90;;;;;;4917024;29;20050;-73
2023/08/10 09:42:24;;;;;;;2.53;1.73;;;24.80;89.80;;;;;;4920307;29;20036;-73
2023/08/10 09:44:51;;;;;;;8.65;2.03;;;24.70;89.10;;;;;;4917235;29;20035;-73
2023/08/10 09:47:18;;;;;;;5.55;1.83;;;24.80;87.20;;;;;;4933566;29;20068;-73
2023/08/10 09:50:01;;;;;;;4.68;1.52;;;24.90;89.40;;;;;;4933357;29;20032;-74
2023/08/10 09:52:28;;;;;;;4.55;1.90;;;25.00;84.30;;;;;;4915511;29;20039;-74
2023/08/10 09:54:56;;;;;;;2.55;1.70;;;25.00;84.60;;;;;;4915668;29;20535;-74
2023/08/10 09:57:23;;;;;;;4.70;1.88;;;24.90;85.10;;;;;;4921557;29;20068;-73
2023/08/10 09:59:49;;;;;;;3.33;1.30;;;25.00;83.90;;;;;;4923720;29;20051;-74
2023/08/10 10:02:16;;;;;;;4.82;2.13;;;25.30;85.60;;;;;;4938365;29;20035;-74
2023/08/10 10:04:43;;;;;;;2.25;1.20;;;25.30;85.60;;;;;;4920740;29;20063;-73
2023/08/10 10:07:11;;;;;;;2.38;1.67;;;25.10;83.40;;;;;;4937779;29;20047;-74
2023/08/10 10:09:38;;;;;;;2.92;1.48;;;24.90;84.60;;;;;;4909606;29;20036;-74
2023/08/10 10:12:09;;;;;;;3.88;1.80;;;25.00;85.70;;;;;;4938196;29;20089;-74
2023/08/10 10:14:43;;;;;;;5.45;2.38;;;24.60;82.60;;;;;;4938465;29;20102;-74
2023/08/10 10:17:14;;;;;;;4.50;1.88;;;24.90;83.90;;;;;;4936801;29;20092;-73
2023/08/10 10:19:40;;;;;;;7.82;1.30;;;25.10;83.90;;;;;;4937336;29;20118;-74
2023/08/10 10:22:07;;;;;;;3.63;1.60;;;25.40;84.90;;;;;;4936762;29;20103;-74
2023/08/10 10:24:34;;;;;;;12.80;1.95;;;25.60;80.80;;;;;;4936418;29;20035;-74
2023/08/10 10:27:11;;;;;;;6.00;1.77;;;25.70;82.50;;;;;;4916785;29;20070;-74
2023/08/10 10:29:41;;;;;;;4.20;1.73;;;25.70;82.20;;;;;;4926188;29;20086;-73
2023/08/10 10:32:13;;;;;;;5.03;1.80;;;25.30;84.00;;;;;;4937961;29;20066;-74
2023/08/10 10:34:40;;;;;;;2.90;1.80;;;25.00;85.60;;;;;;4937258;29;20063;-73
2023/08/10 10:37:15;;;;;;;3.05;2.17;;;25.10;84.60;;;;;;4920550;29;20067;-74
2023/08/10 10:39:44;;;;;;;4.50;1.65;;;25.30;85.90;;;;;;4937976;29;20032;-73
2023/08/10 10:42:11;;;;;;;2.00;1.70;;;25.10;84.80;;;;;;4937466;29;20042;-74
2023/08/10 10:45:14;;;;;;;3.38;1.77;;;25.10;83.40;;;;;;4936543;29;20107;-73
2023/08/10 10:47:49;;;;;;;3.40;1.40;;;25.40;85.00;;;;;;4937235;29;20350;-73
2023/08/10 10:50:15;;;;;;;2.53;1.20;;;25.50;82.10;;;;;;4935267;29;20392;-73
2023/08/10 10:52:53;;;;;;;5.25;1.33;;;25.40;80.60;;;;;;4924018;29;20047;-73
2023/08/10 10:55:19;;;;;;;1.63;1.38;;;25.50;80.90;;;;;;4928094;29;20032;-74
2023/08/10 10:57:48;;;;;;;3.25;1.35;;;25.40;82.30;;;;;;4918191;29;20111;-74
2023/08/10 11:00:14;;;;;;;3.58;1.25;;;25.50;79.30;;;;;;4916848;29;20051;-74
2023/08/10 11:02:40;;;;;;;1.42;1.10;;;25.70;81.10;;;;;;4920433;29;20029;-74
2023/08/10 11:05:17;;;;;;;2.22;1.30;;;25.80;81.80;;;;;;4917074;29;20056;-74
2023/08/10 11:07:50;;;;;;;4.63;1.38;;;25.90;80.80;;;;;;4922644;29;20111;-74
2023/08/10 11:10:17;;;;;;;3.85;1.52;;;26.00;80.00;;;;;;4926711;29;20032;-74
2023/08/10 11:12:44;;;;;;;1.80;1.50;;;26.10;78.50;;;;;;4936608;29;20090;-73
2023/08/10 11:15:15;;;;;;;1.13;1.02;;;26.30;79.40;;;;;;4936802;29;20107;-74
2023/08/10 11:17:42;;;;;;;1.85;1.08;;;26.20;80.10;;;;;;4936851;29;20032;-74
2023/08/10 11:20:14;;;;;;;3.80;1.30;;;26.10;77.20;;;;;;4936817;29;20032;-74
2023/08/10 11:22:40;;;;;;;;;;;26.10;77.40;;;;;;4934750;29;20091;-72
2023/08/10 11:25:25;;;;;;;2.08;1.00;;;26.10;78.00;;;;;;4956901;29;19984;-72
2023/08/10 11:27:56;;;;;;;3.00;1.42;;;26.10;75.50;;;;;;4950229;29;20063;-72
2023/08/10 11:30:23;;;;;;;1.17;1.05;;;26.30;76.90;;;;;;4937308;29;20031;-71
2023/08/10 11:32:53;;;;;;;4.65;1.38;;;26.10;74.60;;;;;;4937770;29;20066;-72
2023/08/10 11:35:24;;;;;;;1.98;1.08;;;26.10;74.30;;;;;;4932152;29;20019;-73
2023/08/10 11:37:50;;;;;;;1.60;1.13;;;26.20;78.50;;;;;;4936004;29;20042;-73
2023/08/10 11:40:19;;;;;;;2.08;1.23;;;26.40;75.00;;;;;;4926194;29;20148;-73
2023/08/10 11:42:52;;;;;;;6.20;1.55;;;26.50;75.10;;;;;;4937467;29;20082;-73
2023/08/10 11:45:23;;;;;;;3.17;1.13;;;26.40;76.80;;;;;;4937644;29;20469;-73
2023/08/10 11:47:52;;;;;;;2.63;1.55;;;26.30;74.30;;;;;;4904312;29;20071;-73
2023/08/10 11:50:20;;;;;;;3.67;1.40;;;26.30;77.30;;;;;;4937358;29;20420;-74
2023/08/10 11:52:49;;;;;;;2.17;1.15;;;26.20;75.80;;;;;;4936673;29;20431;-74
2023/08/10 11:55:16;;;;;;;3.38;1.00;;;26.40;75.00;;;;;;4937479;29;20171;-73
2023/08/10 11:57:48;;;;;;;2.00;1.35;;;26.40;75.90;;;;;;4937197;29;20036;-73
2023/08/10 12:00:25;;;;;;;1.73;1.23;;;26.40;73.40;;;;;;4937284;29;20483;-73
2023/08/10 12:03:14;;;;;;;1.55;1.23;;;26.40;77.50;;;;;;4924647;29;20050;-73
2023/08/10 12:05:44;;;;;;;3.70;1.80;;;26.50;76.70;;;;;;4903454;29;20040;-73
2023/08/10 12:08:15;;;;;;;2.53;1.17;;;26.20;77.00;;;;;;4936548;29;20048;-74
2023/08/10 12:10:42;;;;;;;3.28;1.20;;;26.00;77.90;;;;;;4936850;29;20027;-73
2023/08/10 12:13:12;;;;;;;3.13;1.20;;;25.70;77.30;;;;;;4919917;29;20035;-74
2023/08/10 12:15:47;;;;;;;2.97;1.60;;;25.90;79.10;;;;;;4921347;29;20226;-74
2023/08/10 12:18:17;;;;;;;6.82;1.50;;;26.10;77.70;;;;;;4919980;29;20028;-73
2023/08/10 12:20:48;;;;;;;3.10;1.52;;;26.10;76.90;;;;;;4936286;29;20038;-72
2023/08/10 12:23:15;;;;;;;8.68;1.58;;;26.20;79.50;;;;;;4930290;29;20075;-73
2023/08/10 12:25:45;;;;;;;2.17;1.50;;;26.20;76.60;;;;;;4909091;29;20492;-73
2023/08/10 12:28:12;;;;;;;1.98;1.25;;;26.00;77.40;;;;;;4935302;29;20044;-72
2023/08/10 12:30:39;;;;;;;3.33;1.20;;;26.00;78.40;;;;;;4917688;29;20114;-72
2023/08/10 12:33:10;;;;;;;2.53;0.95;;;26.10;78.00;;;;;;4934870;29;20032;-73
2023/08/10 12:35:37;;;;;;;4.47;1.67;;;26.20;78.10;;;;;;4931804;29;20023;-72
2023/08/10 12:38:06;;;;;;;1.65;1.27;;;26.10;76.50;;;;;;4935857;29;20091;-73
2023/08/10 12:40:32;;;;;;;2.72;1.40;;;26.00;75.80;;;;;;4935196;29;20032;-73
2023/08/10 12:42:58;;;;;;;1.95;1.15;;;26.10;81.10;;;;;;4936066;29;20051;-73
2023/08/10 12:45:25;;;;;;;1.33;1.20;;;26.20;79.20;;;;;;4935689;29;20028;-73
2023/08/10 12:47:52;;;;;;;2.72;1.50;;;26.20;79.80;;;;;;4935310;29;20043;-72